sensor_id;sensor_type;location;lat;lon;timestamp;pressure;altitude;pressure_sealevel;temperature;humidity
59194;BME280;44967;48.598;15.650;2023-05-08T00:01:12;98896.91;;;9.64;62.65
59194;BME280;44967;48.598;15.650;2023-05-08T00:03:38;98895.06;;;9.69;62.06
59194;BME280;44967;48.598;15.650;2023-05-08T00:06:06;98884.44;;;9.74;62.06
59194;BME280;44967;48.598;15.650;2023-05-08T00:08:32;98887.41;;;9.54;62.71
59194;BME280;44967;48.598;15.650;2023-05-08T00:10:58;98889.09;;;9.60;62.71
59194;BME280;44967;48.598;15.650;2023-05-08T00:13:23;98890.84;;;9.59;62.23
59194;BME280;44967;48.598;15.650;2023-05-08T00:15:49;98889.09;;;9.58;62.34
59194;BME280;44967;48.598;15.650;2023-05-08T00:18:15;98888.91;;;9.69;61.90
59194;BME280;44967;48.598;15.650;2023-05-08T00:20:41;98897.16;;;9.51;62.03
59194;BME280;44967;48.598;15.650;2023-05-08T00:23:07;98893.03;;;9.33;62.71
59194;BME280;44967;48.598;15.650;2023-05-08T00:25:33;98892.16;;;9.32;62.97
59194;BME280;44967;48.598;15.650;2023-05-08T00:27:59;98896.28;;;9.48;62.26
59194;BME280;44967;48.598;15.650;2023-05-08T00:30:25;98891.75;;;9.57;61.75
59194;BME280;44967;48.598;15.650;2023-05-08T00:32:51;98896.25;;;9.52;62.18
59194;BME280;44967;48.598;15.650;2023-05-08T00:35:18;98891.44;;;9.24;62.53
59194;BME280;44967;48.598;15.650;2023-05-08T00:37:43;98899.34;;;9.24;62.79
59194;BME280;44967;48.598;15.650;2023-05-08T00:40:10;98894.66;;;9.41;62.77
59194;BME280;44967;48.598;15.650;2023-05-08T00:42:37;98897.41;;;9.35;63.20
59194;BME280;44967;48.598;15.650;2023-05-08T00:45:03;98902.59;;;9.40;61.87
59194;BME280;44967;48.598;15.650;2023-05-08T00:47:30;98899.97;;;9.40;61.90
59194;BME280;44967;48.598;15.650;2023-05-08T00:49:57;98901.00;;;9.28;62.45
59194;BME280;44967;48.598;15.650;2023-05-08T00:52:25;98899.03;;;9.42;61.79
59194;BME280;44967;48.598;15.650;2023-05-08T00:54:52;98895.59;;;9.37;62.12
59194;BME280;44967;48.598;15.650;2023-05-08T00:57:19;98895.72;;;9.31;62.21
59194;BME280;44967;48.598;15.650;2023-05-08T00:59:48;98900.81;;;9.40;60.99
59194;BME280;44967;48.598;15.650;2023-05-08T01:02:14;98905.28;;;9.37;61.93
59194;BME280;44967;48.598;15.650;2023-05-08T01:04:41;98908.19;;;9.20;62.26
59194;BME280;44967;48.598;15.650;2023-05-08T01:07:10;98913.25;;;9.32;61.57
59194;BME280;44967;48.598;15.650;2023-05-08T01:09:35;98913.13;;;9.41;61.31
59194;BME280;44967;48.598;15.650;2023-05-08T01:15:13;98907.91;;;9.38;61.86
59194;BME280;44967;48.598;15.650;2023-05-08T01:18:29;98902.06;;;9.18;61.54
59194;BME280;44967;48.598;15.650;2023-05-08T01:32:22;98913.72;;;9.02;62.97
59194;BME280;44967;48.598;15.650;2023-05-08T01:34:56;98919.81;;;9.06;62.21
59194;BME280;44967;48.598;15.650;2023-05-08T01:38:13;98911.59;;;8.66;63.01
59194;BME280;44967;48.598;15.650;2023-05-08T01:40:43;98912.53;;;8.60;62.69
59194;BME280;44967;48.598;15.650;2023-05-08T01:45:48;98914.88;;;8.81;62.03
59194;BME280;44967;48.598;15.650;2023-05-08T01:48:19;98913.19;;;8.77;62.29
59194;BME280;44967;48.598;15.650;2023-05-08T01:50:49;98920.25;;;8.75;62.37
59194;BME280;44967;48.598;15.650;2023-05-08T01:53:22;98920.09;;;8.86;63.15
59194;BME280;44967;48.598;15.650;2023-05-08T01:55:52;98917.56;;;8.78;62.42
59194;BME280;44967;48.598;15.650;2023-05-08T01:58:20;98922.97;;;8.68;62.63
59194;BME280;44967;48.598;15.650;2023-05-08T02:00:49;98922.09;;;8.67;61.86
59194;BME280;44967;48.598;15.650;2023-05-08T02:03:16;98915.09;;;8.66;62.66
59194;BME280;44967;48.598;15.650;2023-05-08T02:05:43;98921.19;;;8.71;63.05
59194;BME280;44967;48.598;15.650;2023-05-08T02:08:11;98919.25;;;8.84;62.93
59194;BME280;44967;48.598;15.650;2023-05-08T02:10:40;98922.06;;;8.70;62.25
59194;BME280;44967;48.598;15.650;2023-05-08T02:13:09;98921.16;;;8.73;62.80
59194;BME280;44967;48.598;15.650;2023-05-08T02:15:37;98921.94;;;8.79;62.13
59194;BME280;44967;48.598;15.650;2023-05-08T02:18:04;98919.31;;;8.81;62.22
59194;BME280;44967;48.598;15.650;2023-05-08T02:20:31;98923.59;;;8.88;62.09
59194;BME280;44967;48.598;15.650;2023-05-08T02:22:58;98921.78;;;8.90;61.57
59194;BME280;44967;48.598;15.650;2023-05-08T02:25:26;98915.69;;;8.86;61.91
59194;BME280;44967;48.598;15.650;2023-05-08T02:27:54;98913.06;;;8.88;62.22
59194;BME280;44967;48.598;15.650;2023-05-08T02:30:24;98923.81;;;8.73;62.23
59194;BME280;44967;48.598;15.650;2023-05-08T02:32:51;98921.03;;;8.82;61.88
59194;BME280;44967;48.598;15.650;2023-05-08T02:35:18;98916.69;;;8.81;62.09
59194;BME280;44967;48.598;15.650;2023-05-08T02:37:49;98909.63;;;8.81;62.10
59194;BME280;44967;48.598;15.650;2023-05-08T02:40:16;98921.16;;;8.73;62.55
59194;BME280;44967;48.598;15.650;2023-05-08T02:42:43;98916.63;;;8.84;62.21
59194;BME280;44967;48.598;15.650;2023-05-08T02:45:10;98917.41;;;8.89;62.62
59194;BME280;44967;48.598;15.650;2023-05-08T02:47:42;98911.41;;;8.78;62.51
59194;BME280;44967;48.598;15.650;2023-05-08T02:50:19;98924.69;;;8.72;63.19
59194;BME280;44967;48.598;15.650;2023-05-08T02:52:51;98923.91;;;8.62;63.97
59194;BME280;44967;48.598;15.650;2023-05-08T02:58:10;98930.06;;;8.63;63.64
59194;BME280;44967;48.598;15.650;2023-05-08T03:03:18;98929.06;;;8.73;63.69
59194;BME280;44967;48.598;15.650;2023-05-08T03:05:51;98931.63;;;8.79;64.04
59194;BME280;44967;48.598;15.650;2023-05-08T03:08:27;98939.63;;;8.70;62.80
59194;BME280;44967;48.598;15.650;2023-05-08T03:10:57;98944.13;;;8.62;63.57
59194;BME280;44967;48.598;15.650;2023-05-08T03:13:28;98929.38;;;8.47;63.07
59194;BME280;44967;48.598;15.650;2023-05-08T03:15:59;98939.13;;;8.40;63.63
59194;BME280;44967;48.598;15.650;2023-05-08T03:18:33;98934.66;;;8.48;63.44
59194;BME280;44967;48.598;15.650;2023-05-08T03:21:00;98935.44;;;8.53;62.97
59194;BME280;44967;48.598;15.650;2023-05-08T03:23:28;98942.41;;;8.58;62.91
59194;BME280;44967;48.598;15.650;2023-05-08T03:25:56;98937.16;;;8.58;63.22
59194;BME280;44967;48.598;15.650;2023-05-08T03:28:23;98926.56;;;8.62;63.18
59194;BME280;44967;48.598;15.650;2023-05-08T03:30:50;98934.50;;;8.58;63.06
59194;BME280;44967;48.598;15.650;2023-05-08T03:33:17;98931.22;;;8.40;63.81
59194;BME280;44967;48.598;15.650;2023-05-08T03:35:44;98944.59;;;8.21;63.77
59194;BME280;44967;48.598;15.650;2023-05-08T03:38:11;98935.72;;;8.26;63.26
59194;BME280;44967;48.598;15.650;2023-05-08T03:40:37;98937.47;;;8.26;62.27
59194;BME280;44967;48.598;15.650;2023-05-08T03:43:06;98943.63;;;8.31;62.08
59194;BME280;44967;48.598;15.650;2023-05-08T03:45:34;98936.66;;;8.22;62.40
59194;BME280;44967;48.598;15.650;2023-05-08T03:48:03;98933.06;;;8.32;63.36
59194;BME280;44967;48.598;15.650;2023-05-08T03:50:30;98933.88;;;8.40;62.79
59194;BME280;44967;48.598;15.650;2023-05-08T03:52:57;98942.75;;;8.27;62.33
59194;BME280;44967;48.598;15.650;2023-05-08T03:55:23;98939.09;;;8.43;62.13
59194;BME280;44967;48.598;15.650;2023-05-08T03:58:30;98943.56;;;8.35;62.50
59194;BME280;44967;48.598;15.650;2023-05-08T04:03:33;98949.66;;;8.40;62.54
59194;BME280;44967;48.598;15.650;2023-05-08T04:06:36;98949.66;;;8.39;61.72
59194;BME280;44967;48.598;15.650;2023-05-08T04:15:08;98953.34;;;8.21;63.36
59194;BME280;44967;48.598;15.650;2023-05-08T04:20:21;98950.63;;;8.27;63.20
59194;BME280;44967;48.598;15.650;2023-05-08T04:22:49;98948.00;;;8.27;62.03
59194;BME280;44967;48.598;15.650;2023-05-08T04:25:16;98950.69;;;8.29;62.66
59194;BME280;44967;48.598;15.650;2023-05-08T04:27:43;98963.88;;;8.20;62.55
59194;BME280;44967;48.598;15.650;2023-05-08T04:30:09;98960.28;;;8.31;61.92
59194;BME280;44967;48.598;15.650;2023-05-08T04:32:37;98964.72;;;8.22;62.27
59194;BME280;44967;48.598;15.650;2023-05-08T04:35:03;98962.94;;;8.30;62.54
59194;BME280;44967;48.598;15.650;2023-05-08T04:37:30;98967.19;;;8.41;62.43
59194;BME280;44967;48.598;15.650;2023-05-08T04:39:56;98974.25;;;8.39;62.29
59194;BME280;44967;48.598;15.650;2023-05-08T04:42:23;98981.19;;;8.46;61.98
59194;BME280;44967;48.598;15.650;2023-05-08T04:44:50;98984.13;;;8.15;62.88
59194;BME280;44967;48.598;15.650;2023-05-08T04:47:16;98990.22;;;8.21;61.82
59194;BME280;44967;48.598;15.650;2023-05-08T04:49:42;98986.66;;;8.24;61.84
59194;BME280;44967;48.598;15.650;2023-05-08T04:52:07;98985.88;;;8.16;63.01
59194;BME280;44967;48.598;15.650;2023-05-08T04:54:34;98985.78;;;8.23;62.59
59194;BME280;44967;48.598;15.650;2023-05-08T04:57:00;98989.16;;;8.39;62.16
59194;BME280;44967;48.598;15.650;2023-05-08T04:59:25;98996.22;;;8.37;61.92
59194;BME280;44967;48.598;15.650;2023-05-08T05:01:51;98993.50;;;8.44;61.91
59194;BME280;44967;48.598;15.650;2023-05-08T05:04:17;99000.41;;;8.55;62.75
59194;BME280;44967;48.598;15.650;2023-05-08T05:06:43;98996.84;;;8.59;62.57
59194;BME280;44967;48.598;15.650;2023-05-08T05:09:08;98995.97;;;8.61;62.12
59194;BME280;44967;48.598;15.650;2023-05-08T05:11:34;98999.44;;;8.65;61.89
59194;BME280;44967;48.598;15.650;2023-05-08T05:14:00;98994.16;;;8.65;62.97
59194;BME280;44967;48.598;15.650;2023-05-08T05:16:26;99001.94;;;8.74;61.45
59194;BME280;44967;48.598;15.650;2023-05-08T05:18:52;98997.53;;;8.74;61.41
59194;BME280;44967;48.598;15.650;2023-05-08T05:21:18;99000.28;;;8.67;60.78
59194;BME280;44967;48.598;15.650;2023-05-08T05:23:44;99008.19;;;8.65;61.68
59194;BME280;44967;48.598;15.650;2023-05-08T05:26:10;99002.03;;;8.68;60.97
59194;BME280;44967;48.598;15.650;2023-05-08T05:28:36;99000.22;;;8.73;60.53
59194;BME280;44967;48.598;15.650;2023-05-08T05:31:02;99009.69;;;8.86;60.65
59194;BME280;44967;48.598;15.650;2023-05-08T05:33:28;99002.81;;;8.74;61.62
59194;BME280;44967;48.598;15.650;2023-05-08T05:35:54;99006.28;;;8.81;61.19
59194;BME280;44967;48.598;15.650;2023-05-08T05:38:20;99008.91;;;8.79;61.23
59194;BME280;44967;48.598;15.650;2023-05-08T05:40:45;99007.22;;;8.74;61.17
59194;BME280;44967;48.598;15.650;2023-05-08T05:43:11;99014.31;;;8.69;60.96
59194;BME280;44967;48.598;15.650;2023-05-08T05:45:36;99014.28;;;8.72;60.96
59194;BME280;44967;48.598;15.650;2023-05-08T05:48:03;99015.94;;;8.77;61.36
59194;BME280;44967;48.598;15.650;2023-05-08T05:50:30;99016.81;;;8.79;60.91
59194;BME280;44967;48.598;15.650;2023-05-08T05:52:56;99018.56;;;8.80;61.65
59194;BME280;44967;48.598;15.650;2023-05-08T05:55:22;99022.03;;;8.82;61.65
59194;BME280;44967;48.598;15.650;2023-05-08T05:57:47;99022.13;;;8.76;60.94
59194;BME280;44967;48.598;15.650;2023-05-08T06:00:14;99021.13;;;8.85;61.41
59194;BME280;44967;48.598;15.650;2023-05-08T06:02:41;99030.09;;;8.72;61.34
59194;BME280;44967;48.598;15.650;2023-05-08T06:05:07;99028.38;;;8.66;61.51
59194;BME280;44967;48.598;15.650;2023-05-08T06:07:33;99031.88;;;8.67;63.10
59194;BME280;44967;48.598;15.650;2023-05-08T06:09:58;99030.22;;;8.61;62.95
59194;BME280;44967;48.598;15.650;2023-05-08T06:12:25;99038.88;;;8.72;62.63
59194;BME280;44967;48.598;15.650;2023-05-08T06:14:52;99036.09;;;8.83;61.01
59194;BME280;44967;48.598;15.650;2023-05-08T06:17:17;99030.69;;;8.95;61.24
59194;BME280;44967;48.598;15.650;2023-05-08T06:19:43;99029.81;;;8.96;60.82
59194;BME280;44967;48.598;15.650;2023-05-08T06:22:15;99039.31;;;9.08;60.66
59194;BME280;44967;48.598;15.650;2023-05-08T06:24:41;99043.69;;;9.09;60.78
59194;BME280;44967;48.598;15.650;2023-05-08T06:27:08;99038.34;;;9.13;60.26
59194;BME280;44967;48.598;15.650;2023-05-08T06:29:34;99038.59;;;8.95;61.26
59194;BME280;44967;48.598;15.650;2023-05-08T06:32:00;99042.00;;;9.05;60.39
59194;BME280;44967;48.598;15.650;2023-05-08T06:34:25;99037.50;;;9.11;59.81
59194;BME280;44967;48.598;15.650;2023-05-08T06:36:51;99040.41;;;8.90;60.47
59194;BME280;44967;48.598;15.650;2023-05-08T06:39:17;99043.06;;;8.88;61.24
59194;BME280;44967;48.598;15.650;2023-05-08T06:41:46;99049.19;;;8.90;61.45
59194;BME280;44967;48.598;15.650;2023-05-08T06:44:13;99047.28;;;9.03;60.37
59194;BME280;44967;48.598;15.650;2023-05-08T06:46:38;99043.78;;;9.01;60.11
59194;BME280;44967;48.598;15.650;2023-05-08T06:49:04;99049.00;;;9.06;60.16
59194;BME280;44967;48.598;15.650;2023-05-08T06:51:30;99043.81;;;8.98;59.79
59194;BME280;44967;48.598;15.650;2023-05-08T06:53:56;99050.59;;;9.17;60.28
59194;BME280;44967;48.598;15.650;2023-05-08T06:56:21;99049.91;;;9.02;59.50
59194;BME280;44967;48.598;15.650;2023-05-08T06:58:47;99059.44;;;9.16;59.75
59194;BME280;44967;48.598;15.650;2023-05-08T07:01:13;99057.97;;;8.91;59.74
59194;BME280;44967;48.598;15.650;2023-05-08T07:03:39;99053.63;;;8.88;60.49
59194;BME280;44967;48.598;15.650;2023-05-08T07:06:07;99060.75;;;8.79;60.85
59194;BME280;44967;48.598;15.650;2023-05-08T07:08:34;99064.06;;;8.96;60.71
59194;BME280;44967;48.598;15.650;2023-05-08T07:11:00;99069.44;;;8.87;60.80
59194;BME280;44967;48.598;15.650;2023-05-08T07:13:26;99066.50;;;9.11;60.38
59194;BME280;44967;48.598;15.650;2023-05-08T07:15:51;99061.38;;;8.99;60.16
59194;BME280;44967;48.598;15.650;2023-05-08T07:18:17;99066.41;;;9.17;59.22
59194;BME280;44967;48.598;15.650;2023-05-08T07:20:42;99068.06;;;9.27;58.50
59194;BME280;44967;48.598;15.650;2023-05-08T07:23:08;99067.91;;;9.39;59.06
59194;BME280;44967;48.598;15.650;2023-05-08T07:25:34;99062.59;;;9.41;58.38
59194;BME280;44967;48.598;15.650;2023-05-08T07:28:00;99063.72;;;9.22;59.13
59194;BME280;44967;48.598;15.650;2023-05-08T07:30:26;99069.56;;;9.46;58.31
59194;BME280;44967;48.598;15.650;2023-05-08T07:32:52;99071.16;;;9.57;58.00
59194;BME280;44967;48.598;15.650;2023-05-08T07:35:17;99068.53;;;9.57;58.58
59194;BME280;44967;48.598;15.650;2023-05-08T07:37:44;99070.75;;;9.84;57.27
59194;BME280;44967;48.598;15.650;2023-05-08T07:40:10;99062.88;;;9.82;56.78
59194;BME280;44967;48.598;15.650;2023-05-08T07:42:42;99056.34;;;10.06;57.16
59194;BME280;44967;48.598;15.650;2023-05-08T07:45:11;99068.22;;;9.79;57.25
59194;BME280;44967;48.598;15.650;2023-05-08T07:47:37;99064.28;;;10.06;56.43
59194;BME280;44967;48.598;15.650;2023-05-08T07:50:03;99073.53;;;10.34;56.58
59194;BME280;44967;48.598;15.650;2023-05-08T07:52:29;99068.28;;;10.31;56.37
59194;BME280;44967;48.598;15.650;2023-05-08T07:54:56;99065.91;;;10.13;56.45
59194;BME280;44967;48.598;15.650;2023-05-08T07:57:22;99067.38;;;10.34;55.64
59194;BME280;44967;48.598;15.650;2023-05-08T07:59:49;99070.88;;;10.34;56.10
59194;BME280;44967;48.598;15.650;2023-05-08T08:02:15;99071.16;;;10.67;55.37
59194;BME280;44967;48.598;15.650;2023-05-08T08:04:44;99077.38;;;10.64;54.73
59194;BME280;44967;48.598;15.650;2023-05-08T08:07:10;99081.69;;;10.70;54.33
59194;BME280;44967;48.598;15.650;2023-05-08T08:09:35;99080.03;;;10.63;54.76
59194;BME280;44967;48.598;15.650;2023-05-08T08:12:01;99068.09;;;10.90;54.06
59194;BME280;44967;48.598;15.650;2023-05-08T08:14:27;99068.19;;;11.28;53.42
59194;BME280;44967;48.598;15.650;2023-05-08T08:16:53;99077.38;;;11.10;53.05
59194;BME280;44967;48.598;15.650;2023-05-08T08:19:18;99076.41;;;11.14;53.64
59194;BME280;44967;48.598;15.650;2023-05-08T08:21:44;99082.63;;;11.13;53.58
59194;BME280;44967;48.598;15.650;2023-05-08T08:24:11;99081.41;;;10.85;53.38
59194;BME280;44967;48.598;15.650;2023-05-08T08:26:36;99077.16;;;10.76;52.95
59194;BME280;44967;48.598;15.650;2023-05-08T08:29:02;99077.91;;;10.83;53.07
59194;BME280;44967;48.598;15.650;2023-05-08T08:31:28;99076.28;;;10.76;53.68
59194;BME280;44967;48.598;15.650;2023-05-08T08:33:54;99076.53;;;11.08;53.98
59194;BME280;44967;48.598;15.650;2023-05-08T08:36:21;99080.84;;;11.55;52.00
59194;BME280;44967;48.598;15.650;2023-05-08T08:38:49;99072.44;;;11.37;52.19
59194;BME280;44967;48.598;15.650;2023-05-08T08:41:14;99073.25;;;11.80;49.99
59194;BME280;44967;48.598;15.650;2023-05-08T08:43:40;99072.69;;;12.04;50.78
59194;BME280;44967;48.598;15.650;2023-05-08T08:46:12;99065.84;;;11.96;50.17
59194;BME280;44967;48.598;15.650;2023-05-08T08:48:44;99057.69;;;12.03;49.76
59194;BME280;44967;48.598;15.650;2023-05-08T08:51:23;99061.03;;;12.11;50.00
59194;BME280;44967;48.598;15.650;2023-05-08T08:53:58;99065.63;;;11.65;50.95
59194;BME280;44967;48.598;15.650;2023-05-08T08:56:28;99062.31;;;11.95;50.90
59194;BME280;44967;48.598;15.650;2023-05-08T08:58:59;99059.69;;;11.94;50.63
59194;BME280;44967;48.598;15.650;2023-05-08T09:01:25;99059.75;;;12.27;51.56
59194;BME280;44967;48.598;15.650;2023-05-08T09:03:57;99059.41;;;12.73;49.73
59194;BME280;44967;48.598;15.650;2023-05-08T09:06:24;99058.31;;;12.82;48.87
59194;BME280;44967;48.598;15.650;2023-05-08T09:08:54;99067.09;;;13.75;46.97
59194;BME280;44967;48.598;15.650;2023-05-08T09:11:21;99057.28;;;14.85;44.49
59194;BME280;44967;48.598;15.650;2023-05-08T09:13:47;99046.63;;;16.01;40.96
59194;BME280;44967;48.598;15.650;2023-05-08T09:16:12;99045.59;;;17.10;39.68
59194;BME280;44967;48.598;15.650;2023-05-08T09:18:38;99057.63;;;16.36;38.91
59194;BME280;44967;48.598;15.650;2023-05-08T09:21:07;99057.88;;;16.51;39.20
59194;BME280;44967;48.598;15.650;2023-05-08T09:23:36;99046.38;;;17.12;39.57
59194;BME280;44967;48.598;15.650;2023-05-08T09:26:01;99052.38;;;16.96;38.43
59194;BME280;44967;48.598;15.650;2023-05-08T09:28:27;99038.88;;;17.96;37.07
59194;BME280;44967;48.598;15.650;2023-05-08T09:30:55;99040.47;;;17.81;37.60
59194;BME280;44967;48.598;15.650;2023-05-08T09:33:26;99032.44;;;18.00;36.68
59194;BME280;44967;48.598;15.650;2023-05-08T09:35:56;99033.81;;;17.90;36.92
59194;BME280;44967;48.598;15.650;2023-05-08T09:38:37;99031.53;;;18.18;36.45
59194;BME280;44967;48.598;15.650;2023-05-08T09:41:12;99038.16;;;17.35;38.25
59194;BME280;44967;48.598;15.650;2023-05-08T09:43:42;99037.22;;;16.15;40.24
59194;BME280;44967;48.598;15.650;2023-05-08T09:48:43;99034.00;;;15.62;41.26
59194;BME280;44967;48.598;15.650;2023-05-08T09:51:10;99022.81;;;16.19;39.54
59194;BME280;44967;48.598;15.650;2023-05-08T09:53:36;99025.00;;;16.91;39.85
59194;BME280;44967;48.598;15.650;2023-05-08T09:56:03;99026.59;;;17.16;38.26
59194;BME280;44967;48.598;15.650;2023-05-08T09:58:39;99024.94;;;17.13;38.48
59194;BME280;44967;48.598;15.650;2023-05-08T10:01:06;99027.13;;;17.24;38.75
59194;BME280;44967;48.598;15.650;2023-05-08T10:03:50;99019.53;;;17.72;38.44
59194;BME280;44967;48.598;15.650;2023-05-08T10:06:16;99036.91;;;17.05;38.15
59194;BME280;44967;48.598;15.650;2023-05-08T10:08:41;99020.84;;;16.02;39.57
59194;BME280;44967;48.598;15.650;2023-05-08T10:13:41;99017.13;;;17.09;39.67
59194;BME280;44967;48.598;15.650;2023-05-08T10:16:13;99007.22;;;17.11;39.07
59194;BME280;44967;48.598;15.650;2023-05-08T10:18:42;98998.38;;;17.10;39.40
59194;BME280;44967;48.598;15.650;2023-05-08T10:21:10;99002.03;;;17.08;39.25
59194;BME280;44967;48.598;15.650;2023-05-08T10:23:39;98994.84;;;17.28;39.60
59194;BME280;44967;48.598;15.650;2023-05-08T10:26:12;98989.63;;;17.64;37.65
59194;BME280;44967;48.598;15.650;2023-05-08T10:31:17;98995.63;;;17.12;38.44
59194;BME280;44967;48.598;15.650;2023-05-08T10:33:44;98981.66;;;16.86;39.30
59194;BME280;44967;48.598;15.650;2023-05-08T10:36:11;98975.69;;;17.19;40.03
59194;BME280;44967;48.598;15.650;2023-05-08T10:38:38;98975.38;;;17.64;39.73
59194;BME280;44967;48.598;15.650;2023-05-08T10:41:06;98966.81;;;17.57;40.22
59194;BME280;44967;48.598;15.650;2023-05-08T10:43:32;98968.72;;;17.72;39.67
59194;BME280;44967;48.598;15.650;2023-05-08T10:46:06;98968.22;;;17.64;39.20
59194;BME280;44967;48.598;15.650;2023-05-08T10:49:16;98964.22;;;17.54;38.19
59194;BME280;44967;48.598;15.650;2023-05-08T10:51:52;98965.19;;;17.53;39.30
59194;BME280;44967;48.598;15.650;2023-05-08T10:57:12;98962.13;;;17.05;39.58
59194;BME280;44967;48.598;15.650;2023-05-08T10:59:44;98953.34;;;17.59;40.01
59194;BME280;44967;48.598;15.650;2023-05-08T11:02:10;98958.59;;;17.04;39.65
59194;BME280;44967;48.598;15.650;2023-05-08T11:04:35;98963.50;;;17.13;40.77
59194;BME280;44967;48.598;15.650;2023-05-08T11:07:02;98958.47;;;17.26;39.08
59194;BME280;44967;48.598;15.650;2023-05-08T11:09:45;98963.19;;;17.01;39.55
59194;BME280;44967;48.598;15.650;2023-05-08T11:12:27;98953.78;;;16.73;39.22
59194;BME280;44967;48.598;15.650;2023-05-08T11:15:03;98948.97;;;16.61;40.50
59194;BME280;44967;48.598;15.650;2023-05-08T11:17:34;98953.72;;;16.75;38.62
59194;BME280;44967;48.598;15.650;2023-05-08T11:20:02;98942.19;;;17.12;40.41
59194;BME280;44967;48.598;15.650;2023-05-08T11:22:35;98943.00;;;17.32;38.95
59194;BME280;44967;48.598;15.650;2023-05-08T11:25:07;98935.63;;;17.19;40.29
59194;BME280;44967;48.598;15.650;2023-05-08T11:30:22;98933.88;;;16.80;40.09
59194;BME280;44967;48.598;15.650;2023-05-08T11:33:10;98926.56;;;17.41;39.77
59194;BME280;44967;48.598;15.650;2023-05-08T11:35:57;98925.88;;;16.99;39.25
59194;BME280;44967;48.598;15.650;2023-05-08T11:38:34;98919.97;;;16.92;39.86
59194;BME280;44967;48.598;15.650;2023-05-08T11:43:46;98909.28;;;17.67;39.79
59194;BME280;44967;48.598;15.650;2023-05-08T11:46:16;98906.31;;;17.90;38.52
59194;BME280;44967;48.598;15.650;2023-05-08T11:48:43;98915.53;;;17.85;38.71
59194;BME280;44967;48.598;15.650;2023-05-08T11:51:09;98909.78;;;17.93;37.96
59194;BME280;44967;48.598;15.650;2023-05-08T11:53:37;98901.19;;;17.69;39.24
59194;BME280;44967;48.598;15.650;2023-05-08T11:56:03;98903.31;;;17.79;39.72
59194;BME280;44967;48.598;15.650;2023-05-08T11:58:29;98908.84;;;17.20;39.85
59194;BME280;44967;48.598;15.650;2023-05-08T12:00:55;98901.28;;;16.92;39.31
59194;BME280;44967;48.598;15.650;2023-05-08T12:03:23;98900.75;;;17.40;38.82
59194;BME280;44967;48.598;15.650;2023-05-08T12:05:56;98905.34;;;17.74;38.50
59194;BME280;44967;48.598;15.650;2023-05-08T12:08:23;98906.41;;;17.89;38.11
59194;BME280;44967;48.598;15.650;2023-05-08T12:10:53;98908.59;;;17.98;38.40
59194;BME280;44967;48.598;15.650;2023-05-08T12:13:22;98902.44;;;17.79;38.09
59194;BME280;44967;48.598;15.650;2023-05-08T12:15:49;98902.50;;;17.23;39.70
59194;BME280;44967;48.598;15.650;2023-05-08T12:18:15;98888.72;;;17.13;39.13
59194;BME280;44967;48.598;15.650;2023-05-08T12:20:42;98894.78;;;17.17;39.89
59194;BME280;44967;48.598;15.650;2023-05-08T12:23:08;98889.25;;;17.38;39.93
59194;BME280;44967;48.598;15.650;2023-05-08T12:25:38;98896.91;;;18.01;40.67
59194;BME280;44967;48.598;15.650;2023-05-08T12:28:10;98900.66;;;18.14;37.18
59194;BME280;44967;48.598;15.650;2023-05-08T12:30:36;98901.16;;;18.56;37.09
59194;BME280;44967;48.598;15.650;2023-05-08T12:33:03;98899.81;;;18.80;36.42
59194;BME280;44967;48.598;15.650;2023-05-08T12:35:30;98902.66;;;18.77;36.54
59194;BME280;44967;48.598;15.650;2023-05-08T12:38:00;98908.88;;;18.28;36.72
59194;BME280;44967;48.598;15.650;2023-05-08T12:40:32;98899.06;;;18.61;37.60
59194;BME280;44967;48.598;15.650;2023-05-08T12:43:03;98902.06;;;18.72;35.88
59194;BME280;44967;48.598;15.650;2023-05-08T12:45:31;98900.19;;;18.06;36.10
59194;BME280;44967;48.598;15.650;2023-05-08T12:48:04;98899.06;;;18.61;37.84
59194;BME280;44967;48.598;15.650;2023-05-08T12:50:35;98898.63;;;18.53;36.19
59194;BME280;44967;48.598;15.650;2023-05-08T12:53:05;98900.06;;;18.60;38.11
59194;BME280;44967;48.598;15.650;2023-05-08T12:55:33;98890.91;;;18.64;36.89
59194;BME280;44967;48.598;15.650;2023-05-08T12:58:03;98888.88;;;18.52;35.99
59194;BME280;44967;48.598;15.650;2023-05-08T13:00:37;98882.94;;;18.96;36.93
59194;BME280;44967;48.598;15.650;2023-05-08T13:03:04;98877.84;;;19.07;35.88
59194;BME280;44967;48.598;15.650;2023-05-08T13:05:30;98882.72;;;18.67;36.17
59194;BME280;44967;48.598;15.650;2023-05-08T13:08:03;98877.16;;;19.03;36.62
59194;BME280;44967;48.598;15.650;2023-05-08T13:10:48;98883.13;;;19.24;35.37
59194;BME280;44967;48.598;15.650;2023-05-08T13:13:21;98872.94;;;19.30;35.95
59194;BME280;44967;48.598;15.650;2023-05-08T13:15:48;98870.13;;;19.01;34.44
59194;BME280;44967;48.598;15.650;2023-05-08T13:18:15;98871.34;;;18.79;35.70
59194;BME280;44967;48.598;15.650;2023-05-08T13:20:41;98864.63;;;19.04;36.85
59194;BME280;44967;48.598;15.650;2023-05-08T13:23:07;98859.44;;;19.16;35.83
59194;BME280;44967;48.598;15.650;2023-05-08T13:25:34;98854.59;;;19.39;34.76
59194;BME280;44967;48.598;15.650;2023-05-08T13:28:00;98860.47;;;19.14;34.65
59194;BME280;44967;48.598;15.650;2023-05-08T13:30:26;98854.50;;;19.09;34.30
59194;BME280;44967;48.598;15.650;2023-05-08T13:32:52;98849.06;;;19.26;34.55
59194;BME280;44967;48.598;15.650;2023-05-08T13:35:19;98856.09;;;19.44;34.28
59194;BME280;44967;48.598;15.650;2023-05-08T13:37:45;98852.69;;;19.25;34.25
59194;BME280;44967;48.598;15.650;2023-05-08T13:40:11;98846.66;;;19.06;34.44
59194;BME280;44967;48.598;15.650;2023-05-08T13:42:37;98843.78;;;18.93;33.68
59194;BME280;44967;48.598;15.650;2023-05-08T13:45:04;98844.22;;;19.17;34.26
59194;BME280;44967;48.598;15.650;2023-05-08T13:47:30;98842.22;;;19.20;34.24
59194;BME280;44967;48.598;15.650;2023-05-08T13:49:56;98840.59;;;19.49;34.02
59194;BME280;44967;48.598;15.650;2023-05-08T13:52:21;98838.34;;;19.57;33.81